LIPH 200120Z AUTO VRB01KT 9999 NCD 16/12 Q1026 LIPH 200050Z AUTO VRB01KT 9999 NCD 16/13 Q1026 LIPH 200020Z AUTO VRB01KT 9999 NCD 15/12 Q1026 LIPH 192350Z AUTO 11001KT 9999 NCD 16/12 Q1026 LIPH 192320Z AUTO 00000KT 9999 NCD 17/12 Q1026 LIPH 192250Z AUTO VRB01KT 9999 NCD 17/13 Q1026 LIPH 192220Z AUTO 23002KT 9999 NCD 18/13 Q1026 LIPH 192150Z AUTO 24002KT 9999 NCD 18/13 Q1026 LIPH 192120Z AUTO VRB01KT 9999 NCD 18/12 Q1026 LIPH 192050Z VRB01KT CAVOK 19/11 Q1026 LIPH 192020Z VRB02KT CAVOK 20/12 Q1026 LIPH 191950Z VRB02KT CAVOK 20/12 Q1026 LIPH 191920Z 16001KT CAVOK 21/12 Q1026 LIPH 191850Z 15003KT 130V190 CAVOK 22/11 Q1026 LIPH 191820Z 14003KT CAVOK 22/11 Q1025 LIPH 191750Z 15004KT 120V180 CAVOK 23/11 Q1025 LIPH 191720Z 17006KT 140V200 CAVOK 23/11 Q1025 LIPH 191650Z 16005KT 130V190 CAVOK 24/12 Q1025 LIPH 191620Z 16006KT 130V200 CAVOK 24/12 Q1025 LIPH 191550Z 16006KT 130V190 CAVOK 25/11 Q1025 LIPH 191520Z 16007KT 120V210 CAVOK 25/11 Q1025 LIPH 191450Z 16007KT 110V210 CAVOK 25/12 Q1026 LIPH 191420Z 16005KT 110V200 CAVOK 25/12 Q1026 LIPH 191350Z 14005KT 060V220 CAVOK 26/12 Q1026 LIPH 191320Z VRB06KT CAVOK 25/13 Q1026 LIPH 191250Z 15006KT 100V200 CAVOK 25/10 Q1026 LIPH 191220Z VRB03KT CAVOK 25/11 Q1026 LIPH 191150Z VRB03KT CAVOK 25/09 Q1027 LIPH 191120Z VRB03KT CAVOK 25/11 Q1027 LIPH 191050Z 15004KT 100V250 CAVOK 25/11 Q1027 LIPH 191020Z VRB04KT CAVOK 24/10 Q1027 LIPH 190950Z VRB03KT CAVOK 24/08 Q1027 LIPH 190920Z VRB02KT CAVOK 24/08 Q1027 LIPH 190850Z VRB03KT CAVOK 23/08 Q1027 LIPH 190820Z 14004KT 080V190 CAVOK 22/08 Q1027 LIPH 190750Z 14006KT 100V170 CAVOK 22/08 Q1027 LIPH 190720Z 09005KT 050V130 CAVOK 22/08 Q1027 LIPH 190650Z 08005KT 040V100 CAVOK 20/09 Q1027 LIPH 190620Z 05003KT 010V080 CAVOK 21/09 Q1027 LIPH 190550Z 04003KT 010V080 CAVOK 20/09 Q1027 LIPH 190520Z VRB02KT CAVOK 18/08 Q1027 LIPH 190450Z AUTO VRB02KT 9999 NCD 18/09 Q1027 LIPH 190420Z AUTO 03006KT 9999 NCD 17/08 Q1026 LIPH 190350Z AUTO 03005KT 9999 NCD 17/08 Q1026 LIPH 190320Z AUTO 04003KT 9999 NCD 17/09 Q1026 LIPH 190250Z AUTO 02004KT 9999 NCD 17/09 Q1026 LIPH 190220Z AUTO 01003KT 9999 NCD 18/09 Q1026 LIPH 190150Z AUTO 02004KT 330V040 9999 NCD 19/09 Q1026 LIPH 190120Z AUTO VRB02KT 9999 BKN110/// 19/10 Q1026 LIPH 190050Z AUTO 01003KT 9999 BKN110/// 19/12 Q1026 LIPH 190020Z AUTO 02003KT 9999 BKN110/// 19/13 Q1026 LIPH 182350Z AUTO 02003KT 9999 BKN110/// 20/13 Q1026 LIPH 182320Z AUTO 05004KT 9999 FEW095/// 20/12 Q1026 LIPH 182250Z AUTO 03003KT 350V050 9999 SCT093/// BKN100/// 20/16 Q1026 LIPH 182220Z AUTO 04003KT 9999 BKN094/// 20/16 Q1026 LIPH 182150Z AUTO VRB02KT 9999 BKN094/// 21/16 Q1025 LIPH 182120Z AUTO 09002KT 9999 BKN092/// 20/16 Q1025 LIPH 182050Z VRB02KT CAVOK 22/15 Q1025 LIPH 182020Z 11002KT CAVOK 22/15 Q1024 LIPH 181950Z VRB02KT CAVOK 21/16 Q1024 LIPH 181920Z VRB01KT CAVOK 23/14 Q1024 LIPH 181850Z 14003KT CAVOK 23/13 Q1023 LIPH 181820Z 15005KT CAVOK 24/13 Q1023 LIPH 181750Z 15002KT CAVOK 25/11 Q1023 LIPH 181720Z VRB02KT CAVOK 25/11 Q1023 LIPH 181650Z 14004KT 120V190 CAVOK 26/11 Q1022 LIPH 181620Z 14004KT 100V190 CAVOK 26/10 Q1022 LIPH 181550Z 13006KT 090V150 CAVOK 26/11 Q1022 LIPH 181520Z 12005KT 090V170 CAVOK 26/11 Q1022 LIPH 181450Z 14006KT 080V230 CAVOK 26/11 Q1022 LIPH 181420Z 13007KT 090V200 CAVOK 26/12 Q1022 LIPH 181350Z 14006KT 110V180 CAVOK 26/11 Q1022

METAR Messwerte "TREVISO(CIV/IT-A" LIPH

Zurück zur Übersicht

Ortsname
Ländercode / m ü. NN
Zeit Temperatur Taupunkt Rel.
Luftfeuchte
Luftdruck:
Altimeter
NN
Station
Wind in Beaufort
(Knoten)
Sichtweite
(Meter)
Wolken
(Meter über Grund)
Wettererscheinung
TREVISO(CIV/IT-A
IT 10
Fr 20.05. 03:20161277 %1026
1026
1025
Uml 1 (1)>= 10000  
TREVISO(CIV/IT-A
IT 10
Fr 20.05. 02:50161382 %1026
1026
1025
Uml 1 (1)>= 10000  
TREVISO(CIV/IT-A
IT 10
Fr 20.05. 02:20151282 %1026
1026
1025
Uml 1 (1)>= 10000  
TREVISO(CIV/IT-A
IT 10
Fr 20.05. 01:50161277 %1026
1026
1025
OSO 1 (1)>= 10000  
TREVISO(CIV/IT-A
IT 10
Fr 20.05. 01:20171272 %1026
1026
1025
Windstill>= 10000  
TREVISO(CIV/IT-A
IT 10
Fr 20.05. 00:50171377 %1026
1026
1025
Uml 1 (1)>= 10000  
TREVISO(CIV/IT-A
IT 10
Fr 20.05. 00:20181373 %1026
1026
1025
SW 1 (2)>= 10000  
TREVISO(CIV/IT-A
IT 10
Do 19.05. 23:50181373 %1026
1026
1025
WSW 1 (2)>= 10000  
TREVISO(CIV/IT-A
IT 10
Do 19.05. 23:20181268 %1026
1026
1025
Uml 1 (1)>= 10000  
TREVISO(CIV/IT-A
IT 10
Do 19.05. 22:50191160 %1026
1026
1025
Uml 1 (1)>= 10000Nicht signifikant 
TREVISO(CIV/IT-A
IT 10
Do 19.05. 22:20201260 %1026
1026
1025
Uml 1 (2)>= 10000Nicht signifikant 
TREVISO(CIV/IT-A
IT 10
Do 19.05. 21:50201260 %1026
1026
1025
Uml 1 (2)>= 10000Nicht signifikant 
TREVISO(CIV/IT-A
IT 10
Do 19.05. 21:20211256 %1026
1026
1025
SSO 1 (1)>= 10000Nicht signifikant 
TREVISO(CIV/IT-A
IT 10
Do 19.05. 20:50221150 %1026
1026
1025
SSO 2 (3)
SO - S
>= 10000Nicht signifikant 
TREVISO(CIV/IT-A
IT 10
Do 19.05. 20:20221150 %1025
1025
1024
SO 2 (3)>= 10000Nicht signifikant 
TREVISO(CIV/IT-A
IT 10
Do 19.05. 19:50231147 %1025
1025
1024
SSO 2 (4)
OSO - S
>= 10000Nicht signifikant 
TREVISO(CIV/IT-A
IT 10
Do 19.05. 19:20231147 %1025
1025
1024
S 2 (6)
SO - SSW
>= 10000Nicht signifikant 
TREVISO(CIV/IT-A
IT 10
Do 19.05. 18:50241247 %1025
1025
1024
SSO 2 (5)
SO - S
>= 10000Nicht signifikant 
TREVISO(CIV/IT-A
IT 10
Do 19.05. 18:20241247 %1025
1025
1024
SSO 2 (6)
SO - SSW
>= 10000Nicht signifikant 
TREVISO(CIV/IT-A
IT 10
Do 19.05. 17:50251141 %1025
1025
1024
SSO 2 (6)
SO - S
>= 10000Nicht signifikant 
TREVISO(CIV/IT-A
IT 10
Do 19.05. 17:20251141 %1025
1025
1024
SSO 3 (7)
OSO - SSW
>= 10000Nicht signifikant 
TREVISO(CIV/IT-A
IT 10
Do 19.05. 16:50251244 %1026
1026
1025
SSO 3 (7)
OSO - SSW
>= 10000Nicht signifikant 
TREVISO(CIV/IT-A
IT 10
Do 19.05. 16:20251244 %1026
1026
1025
SSO 2 (5)
OSO - SSW
>= 10000Nicht signifikant 
TREVISO(CIV/IT-A
IT 10
Do 19.05. 15:50261242 %1026
1026
1025
SO 2 (5)
ONO - SW
>= 10000Nicht signifikant 
TREVISO(CIV/IT-A
IT 10
Do 19.05. 15:20251347 %1026
1026
1025
Uml 2 (6)>= 10000Nicht signifikant 
TREVISO(CIV/IT-A
IT 10
Do 19.05. 14:50251039 %1026
1026
1025
SSO 2 (6)
O - SSW
>= 10000Nicht signifikant 
TREVISO(CIV/IT-A
IT 10
Do 19.05. 14:20251141 %1026
1026
1025
Uml 2 (3)>= 10000Nicht signifikant 
TREVISO(CIV/IT-A
IT 10
Do 19.05. 13:5025936 %1027
1027
1026
Uml 2 (3)>= 10000Nicht signifikant 
TREVISO(CIV/IT-A
IT 10
Do 19.05. 13:20251141 %1027
1027
1026
Uml 2 (3)>= 10000Nicht signifikant 
TREVISO(CIV/IT-A
IT 10
Do 19.05. 12:50251141 %1027
1027
1026
SSO 2 (4)
O - WSW
>= 10000Nicht signifikant 
TREVISO(CIV/IT-A
IT 10
Do 19.05. 12:20241041 %1027
1027
1026
Uml 2 (4)>= 10000Nicht signifikant 
TREVISO(CIV/IT-A
IT 10
Do 19.05. 11:5024836 %1027
1027
1026
Uml 2 (3)>= 10000Nicht signifikant 
TREVISO(CIV/IT-A
IT 10
Do 19.05. 11:2024836 %1027
1027
1026
Uml 1 (2)>= 10000Nicht signifikant 
TREVISO(CIV/IT-A
IT 10
Do 19.05. 10:5023838 %1027
1027
1026
Uml 2 (3)>= 10000Nicht signifikant 
TREVISO(CIV/IT-A
IT 10
Do 19.05. 10:2022841 %1027
1027
1026
SO 2 (4)
O - S
>= 10000Nicht signifikant 
TREVISO(CIV/IT-A
IT 10
Do 19.05. 09:5022841 %1027
1027
1026
SO 2 (6)
O - S
>= 10000Nicht signifikant 
TREVISO(CIV/IT-A
IT 10
Do 19.05. 09:2022841 %1027
1027
1026
O 2 (5)
NO - SO
>= 10000Nicht signifikant 
TREVISO(CIV/IT-A
IT 10
Do 19.05. 08:5020949 %1027
1027
1026
O 2 (5)
NO - O
>= 10000Nicht signifikant 
TREVISO(CIV/IT-A
IT 10
Do 19.05. 08:2021946 %1027
1027
1026
NO 2 (3)
N - O
>= 10000Nicht signifikant 
TREVISO(CIV/IT-A
IT 10
Do 19.05. 07:5020949 %1027
1027
1026
NO 2 (3)
N - O
>= 10000Nicht signifikant 
TREVISO(CIV/IT-A
IT 10
Do 19.05. 07:2018852 %1027
1027
1026
Uml 1 (2)>= 10000Nicht signifikant 
TREVISO(CIV/IT-A
IT 10
Do 19.05. 06:5018956 %1027
1027
1026
Uml 1 (2)>= 10000  
TREVISO(CIV/IT-A
IT 10
Do 19.05. 06:2017855 %1026
1026
1025
NNO 2 (6)>= 10000  
TREVISO(CIV/IT-A
IT 10
Do 19.05. 05:5017855 %1026
1026
1025
NNO 2 (5)>= 10000  
TREVISO(CIV/IT-A
IT 10
Do 19.05. 05:2017959 %1026
1026
1025
NO 2 (3)>= 10000  
TREVISO(CIV/IT-A
IT 10
Do 19.05. 04:5017959 %1026
1026
1025
NNO 2 (4)>= 10000  
TREVISO(CIV/IT-A
IT 10
Do 19.05. 04:2018956 %1026
1026
1025
N 2 (3)>= 10000  
TREVISO(CIV/IT-A
IT 10
Do 19.05. 03:5019952 %1026
1026
1025
NNO 2 (4)
NNW - NO
>= 10000  
TREVISO(CIV/IT-A
IT 10
Do 19.05. 03:20191056 %1026
1026
1025
Uml 1 (2)>= 10000Stark bewölkt (3400) 
TREVISO(CIV/IT-A
IT 10
Do 19.05. 02:50191264 %1026
1026
1025
N 2 (3)>= 10000Stark bewölkt (3400) 
TREVISO(CIV/IT-A
IT 10
Do 19.05. 02:20191368 %1026
1026
1025
NNO 2 (3)>= 10000Stark bewölkt (3400) 
TREVISO(CIV/IT-A
IT 10
Do 19.05. 01:50201364 %1026
1026
1025
NNO 2 (3)>= 10000Stark bewölkt (3400) 
TREVISO(CIV/IT-A
IT 10
Do 19.05. 01:20201260 %1026
1026
1025
NO 2 (4)>= 10000Leicht bewölkt (2900) 
TREVISO(CIV/IT-A
IT 10
Do 19.05. 00:50201678 %1026
1026
1025
NNO 2 (3)
N - NO
>= 10000Stark bewölkt (3000)
Wolkig (2800)
 
TREVISO(CIV/IT-A
IT 10
Do 19.05. 00:20201678 %1026
1026
1025
NO 2 (3)>= 10000Stark bewölkt (2900) 
TREVISO(CIV/IT-A
IT 10
Mi 18.05. 23:50211673 %1025
1025
1024
Uml 1 (2)>= 10000Stark bewölkt (2900) 
TREVISO(CIV/IT-A
IT 10
Mi 18.05. 23:20201678 %1025
1025
1024
O 1 (2)>= 10000Stark bewölkt (2800) 
TREVISO(CIV/IT-A
IT 10
Mi 18.05. 22:50221565 %1025
1025
1024
Uml 1 (2)>= 10000Nicht signifikant 
TREVISO(CIV/IT-A
IT 10
Mi 18.05. 22:20221565 %1024
1024
1023
OSO 1 (2)>= 10000Nicht signifikant 
TREVISO(CIV/IT-A
IT 10
Mi 18.05. 21:50211673 %1024
1024
1023
Uml 1 (2)>= 10000Nicht signifikant 
TREVISO(CIV/IT-A
IT 10
Mi 18.05. 21:20231457 %1024
1024
1023
Uml 1 (1)>= 10000Nicht signifikant 
TREVISO(CIV/IT-A
IT 10
Mi 18.05. 20:50231353 %1023
1023
1022
SO 2 (3)>= 10000Nicht signifikant 
TREVISO(CIV/IT-A
IT 10
Mi 18.05. 20:20241350 %1023
1023
1022
SSO 2 (5)>= 10000Nicht signifikant 
TREVISO(CIV/IT-A
IT 10
Mi 18.05. 19:50251141 %1023
1023
1022
SSO 1 (2)>= 10000Nicht signifikant 
TREVISO(CIV/IT-A
IT 10
Mi 18.05. 19:20251141 %1023
1023
1022
Uml 1 (2)>= 10000Nicht signifikant 
TREVISO(CIV/IT-A
IT 10
Mi 18.05. 18:50261139 %1022
1022
1021
SO 2 (4)
OSO - S
>= 10000Nicht signifikant 
TREVISO(CIV/IT-A
IT 10
Mi 18.05. 18:20261037 %1022
1022
1021
SO 2 (4)
O - S
>= 10000Nicht signifikant 
TREVISO(CIV/IT-A
IT 10
Mi 18.05. 17:50261139 %1022
1022
1021
SO 2 (6)
O - SSO
>= 10000Nicht signifikant 
TREVISO(CIV/IT-A
IT 10
Mi 18.05. 17:20261139 %1022
1022
1021
OSO 2 (5)
O - S
>= 10000Nicht signifikant 
TREVISO(CIV/IT-A
IT 10
Mi 18.05. 16:50261139 %1022
1022
1021
SO 2 (6)
O - SW
>= 10000Nicht signifikant 
TREVISO(CIV/IT-A
IT 10
Mi 18.05. 16:20261242 %1022
1022
1021
SO 3 (7)
O - SSW
>= 10000Nicht signifikant 
TREVISO(CIV/IT-A
IT 10
Mi 18.05. 15:50261139 %1022
1022
1021
SO 2 (6)
OSO - S
>= 10000Nicht signifikant 

Altimeter: Einstellung am Altimeter (Höhenmesser), die Höhe 0 muss auf diesen Luftdruckwert zeigen, damit das Gerät die Stationshöhe richtig anzeigt.

NN: Luftdruck reduziert auf "Normal Null", auf Meereshöhe, dieser von der Temperatur abhängige Wert wird bisweilen unkorrekt einfach als "Luftdruck" bezeichnet. Eigentlich nur eine fiktive Größe, die es erlaubt, Stationen auf unterschiedlichen Höhen miteinander zu vergleichen.

Station: Realer Luftdruck an der Station.